Latest Coastal Weather Observations for Milingimbi

IDD60701

Issued at 8:01 am CST Sunday 5 July 2015 (issued every 10 minutes, with the page automatically refreshed every 10 minutes)

About coastal observations | Map of coastal stations | Coastal observations for NT | Marine services | Other Formats
Station Details ID: 014404 Name: MILINGIMBI AIRPORT Lat: -12.09 Lon: 134.89 Height: 15.0 m
Data from the previous 72 hours. | See also: Recent months at Milingimbi
Date/Time
CST
Temp

°C
Wind Pressure Rain
since 9am
mm
Weather Cloud Vis
km
Sea
Height
m
Swell
Dir
 
Speed
knots
Gust
knots
hPa Trend Height
m
Period
s
Dir
05/08:00am 20.7 SSW 1 5 1014.8 - 0.0 - - - - - - -
05/07:30am 19.5 SW 2 3 1014.5 - 0.0 - - - - - - -
05/07:00am 19.0 S 1 3 1014.1 - 0.0 - - - - - - -
05/06:30am 19.4 S 3 4 1013.9 - 0.0 - - - - - - -
05/06:00am 19.7 SSE 4 4 1013.6 - 0.0 - - - - - - -
05/05:30am 20.2 S 3 5 1013.5 - 0.0 - - - - - - -
05/05:00am 21.0 S 4 5 1013.4 - 0.0 - - - - - - -
05/04:30am 21.8 SSE 6 8 1013.3 - 0.0 - - - - - - -
05/04:00am 21.8 SSE 5 7 1013.4 - 0.0 - - - - - - -
05/03:30am 22.3 SSE 6 8 1013.5 - 0.0 - - - - - - -
05/03:00am 22.9 ESE 7 11 1013.6 - 0.0 - - - - - - -
05/02:30am 22.8 ESE 8 11 1013.6 - 0.0 - - - - - - -
05/02:00am 23.1 ESE 9 13 1013.6 - 0.0 - - - - - - -
05/01:30am 23.2 ESE 10 17 1013.8 - 0.0 - - - - - - -
05/01:00am 23.2 ESE 9 14 1013.9 - 0.0 - - - - - - -
05/12:30am 23.3 ESE 10 15 1013.9 - 0.0 - - - - - - -
05/12:00am 23.4 ESE 10 16 1013.8 - 0.0 - - - - - - -
 
Date/Time
CST
Temp

°C
Wind Pressure Rain
since 9am
mm
Weather Cloud Vis
km
Sea
Height
m
Swell
Dir
 
Speed
knots
Gust
knots
hPa Trend Height
m
Period
s
Dir
04/11:30pm 23.5 ESE 9 16 1013.8 - 0.0 - - - - - - -
04/11:00pm 23.8 ESE 10 15 1013.8 - 0.0 - - - - - - -
04/10:30pm 24.1 ESE 10 15 1014.0 - 0.0 - - - - - - -
04/10:00pm 24.5 ESE 12 17 1013.9 - 0.0 - - - - - - -
04/09:30pm 25.0 ESE 9 13 1013.8 - 0.0 - - - - - - -
04/09:00pm 25.2 ESE 7 11 1013.5 - 0.0 - - - - - - -
04/08:30pm 24.7 ENE 7 12 1013.4 - 0.0 - - - - - - -
04/08:00pm 24.2 NE 4 7 1013.1 - 0.0 - - - - - - -
04/07:30pm 24.2 NE 4 6 1012.6 - 0.0 - - - - - - -
04/07:00pm 24.6 NE 3 5 1012.6 - 0.0 - - - - - - -
04/06:30pm 24.9 NNE 3 6 1012.1 - 0.0 - - - - - - -
04/06:00pm 25.5 NNE 5 7 1011.7 - 0.0 - - - - - - -
04/05:30pm 26.9 NNE 4 7 1011.5 - 0.0 - - - - - - -
04/05:00pm 27.9 NE 6 11 1011.3 - 0.0 - - - - - - -
04/04:30pm 28.4 ENE 6 10 1011.0 - 0.0 - - - - - - -
04/04:00pm 28.9 ENE 6 9 1010.9 - 0.0 - - - - - - -
04/03:30pm 29.4 E 6 10 1010.9 - 0.0 - - - - - - -
04/03:00pm 29.8 ESE 7 10 1010.9 - 0.0 - - - - - - -
04/02:30pm 29.1 E 8 11 1011.3 - 0.0 - - - - - - -
04/02:00pm 29.4 E 6 10 1011.8 - 0.0 - - - - - - -
04/01:30pm 29.3 ESE 7 11 1012.3 - 0.0 - - - - - - -
04/01:00pm 28.8 ESE 9 15 1012.8 - 0.0 - - - - - - -
04/12:30pm 28.3 SSE 8 14 1013.3 - 0.0 - - - - - - -
04/12:00pm 27.4 S 11 17 1013.6 - 0.0 - - - - - - -
04/11:30am 26.8 SSE 10 14 1014.1 - 0.0 - - - - - - -
04/11:00am 26.5 SE 10 14 1014.9 - 0.0 - - - - - - -
04/10:30am 25.0 SSE 11 15 1015.4 - 0.0 - - - - - - -
04/10:00am 24.3 SSE 11 14 1015.5 - 0.0 - - - - - - -
04/09:30am 23.2 SSE 8 12 1015.8 - 0.0 - - - - - - -
04/09:00am 22.4 SSE 7 9 1015.8 - 0.0 - - - - - - -
04/08:30am 20.8 S 6 8 1015.7 - 0.0 - - - - - - -
04/08:00am 19.8 S 5 8 1015.5 - 0.0 - - - - - - -
04/07:30am 18.8 S 4 6 1015.3 - 0.0 - - - - - - -
04/07:00am 18.6 S 5 7 1014.8 - 0.0 - - - - - - -
04/06:30am 18.9 S 6 8 1014.7 - 0.0 - - - - - - -
04/06:00am 19.0 SSE 6 8 1014.7 - 0.0 - - - - - - -
04/05:30am 19.3 SSE 6 7 1014.8 - 0.0 - - - - - - -
04/05:00am 19.4 SSE 6 7 1014.6 - 0.0 - - - - - - -
04/04:30am 19.4 SSE 6 8 1014.5 - 0.0 - - - - - - -
04/04:00am 19.6 SSE 6 8 1014.5 - 0.0 - - - - - - -
04/03:30am 19.4 SE 4 6 1014.5 - 0.0 - - - - - - -
04/03:00am 19.3 SE 4 5 1014.4 - 0.0 - - - - - - -
04/02:30am 19.7 SE 3 4 1014.7 - 0.0 - - - - - - -
04/02:00am 20.2 SE 5 7 1014.8 - 0.0 - - - - - - -
04/01:30am 20.4 ESE 4 6 1014.8 - 0.0 - - - - - - -
04/01:00am 20.8 SE 7 10 1015.0 - 0.0 - - - - - - -
04/12:30am 21.3 SE 8 11 1015.2 - 0.0 - - - - - - -
04/12:00am 21.5 SE 7 8 1015.3 - 0.0 - - - - - - -
 
Date/Time
CST
Temp

°C
Wind Pressure Rain
since 9am
mm
Weather Cloud Vis
km
Sea
Height
m
Swell
Dir
 
Speed
knots
Gust
knots
hPa Trend Height
m
Period
s
Dir
03/11:30pm 22.1 SE 9 12 1015.4 - 0.0 - - - - - - -
03/11:00pm 22.3 SE 8 13 1015.5 - 0.0 - - - - - - -
03/10:30pm 22.8 SE 10 13 1015.5 - 0.0 - - - - - - -
03/10:00pm 23.3 SE 10 15 1015.5 - 0.0 - - - - - - -
03/09:30pm 23.9 ESE 14 21 1015.3 - 0.0 - - - - - - -
03/09:00pm 24.2 SE 14 19 1014.8 - 0.0 - - - - - - -
03/08:30pm 24.8 ESE 14 19 1014.5 - 0.0 - - - - - - -
03/08:00pm 25.2 ESE 12 17 1014.1 - 0.0 - - - - - - -
03/07:30pm 25.6 ESE 11 16 1013.6 - 0.0 - - - - - - -
03/07:00pm 25.1 SE 6 8 1013.2 - 0.0 - - - - - - -
03/06:30pm 26.0 SSE 7 9 1012.8 - 0.0 - - - - - - -
03/06:00pm 26.9 SSE 7 9 1012.6 - 0.0 - - - - - - -
03/05:30pm 27.5 SSE 9 13 1012.4 - 0.0 - - - - - - -
03/05:00pm 28.2 SSE 6 10 1012.2 - 0.0 - - - - - - -
03/04:30pm 28.3 SSE 10 14 1012.0 - 0.0 - - - - - - -
03/04:00pm 29.3 SE 9 13 1012.0 - 0.0 - - - - - - -
03/03:30pm 29.2 ESE 10 14 1012.2 - 0.0 - - - - - - -
03/03:00pm 28.8 ESE 9 13 1012.5 - 0.0 - - - - - - -
03/02:30pm 28.8 ESE 9 16 1013.0 - 0.0 - - - - - - -
03/02:00pm 28.7 ESE 11 16 1013.5 - 0.0 - - - - - - -
03/01:30pm 28.8 ESE 11 17 1014.2 - 0.0 - - - - - - -
03/01:00pm 28.5 E 9 14 1014.6 - 0.0 - - - - - - -
03/12:30pm 28.8 ESE 12 18 1015.0 - 0.0 - - - - - - -
03/12:00pm 28.3 SE 13 19 1015.3 - 0.0 - - - - - - -
03/11:30am 28.3 ESE 12 17 1015.9 - 0.0 - - - - - - -
03/11:00am 28.1 SE 15 19 1016.1 - 0.0 - - - - - - -
03/10:30am 26.5 SE 13 19 1016.4 - 0.0 - - - - - - -
03/10:00am 25.7 SE 13 19 1016.6 - 0.0 - - - - - - -
03/09:30am 24.1 SSE 12 18 1016.7 - 0.0 - - - - - - -
03/09:00am 22.9 S 10 14 1016.4 - 0.2 - - - - - - -
03/08:30am 21.4 SSE 8 11 1016.5 - 0.2 - - - - - - -
03/08:00am 20.7 SSE 7 10 1016.2 - 0.2 - - - - - - -
03/07:30am 20.7 SSE 6 7 1015.9 - 0.2 - - - - - - -
03/07:00am 20.5 SSE 7 8 1015.7 - 0.0 - - - - - - -
03/06:30am 20.6 SSE 7 9 1015.4 - 0.0 - - - - - - -
03/06:00am 20.5 SSE 6 7 1014.9 - 0.0 - - - - - - -
03/05:30am 20.7 SSE 5 7 1014.8 - 0.0 - - - - - - -
03/05:00am 20.8 SSE 5 7 1014.7 - 0.0 - - - - - - -
03/04:30am 21.1 SSE 5 7 1014.8 - 0.0 - - - - - - -
03/04:00am 21.4 SE 6 7 1014.8 - 0.0 - - - - - - -
03/03:30am 21.5 SE 6 9 1014.9 - 0.0 - - - - - - -
03/03:00am 22.0 SE 7 9 1014.9 - 0.0 - - - - - - -
03/02:30am 21.8 SE 6 7 1015.2 - 0.0 - - - - - - -
03/02:00am 21.9 SE 7 9 1015.7 - 0.0 - - - - - - -
03/01:30am 22.0 SE 6 9 1016.0 - 0.0 - - - - - - -
03/01:00am 22.0 SE 6 8 1016.3 - 0.0 - - - - - - -
03/12:30am 22.3 SSE 6 8 1016.5 - 0.0 - - - - - - -
03/12:00am 22.7 SE 7 10 1016.4 - 0.0 - - - - - - -
 
Date/Time
CST
Temp

°C
Wind Pressure Rain
since 9am
mm
Weather Cloud Vis
km
Sea
Height
m
Swell
Dir
 
Speed
knots
Gust
knots
hPa Trend Height
m
Period
s
Dir
02/11:30pm 22.9 SE 7 9 1016.6 - 0.0 - - - - - - -
02/11:00pm 23.3 SE 8 11 1016.6 - 0.0 - - - - - - -
02/10:30pm 23.7 SE 8 11 1016.7 - 0.0 - - - - - - -
02/10:00pm 24.1 SSE 8 12 1016.6 - 0.0 - - - - - - -
02/09:30pm 24.6 SE 8 11 1016.5 - 0.0 - - - - - - -
02/09:00pm 24.9 SSE 8 11 1016.0 - 0.0 - - - - - - -
02/08:30pm 25.3 SE 7 9 1015.9 - 0.0 - - - - - - -
02/08:00pm 25.9 SE 8 11 1015.4 - 0.0 - - - - - - -
02/07:30pm 26.1 SE 8 10 1015.1 - 0.0 - - - - - - -
02/07:00pm 26.7 SE 9 13 1014.8 - 0.0 - - - - - - -
02/06:30pm 27.0 SE 10 15 1014.5 - 0.0 - - - - - - -
02/06:00pm 27.6 SE 11 15 1014.1 - 0.0 - - - - - - -
02/05:30pm 28.0 SE 9 14 1014.1 - 0.0 - - - - - - -
02/05:00pm 28.7 SE 13 17 1014.0 - 0.0 - - - - - - -
02/04:30pm 29.1 ESE 13 18 1013.8 - 0.0 - - - - - - -
02/04:00pm 29.8 SE 14 19 1013.7 - 0.0 - - - - - - -
02/03:30pm 29.7 ESE 13 18 1013.8 - 0.0 - - - - - - -
02/03:00pm 29.9 ESE 13 20 1013.9 - 0.0 - - - - - - -
02/02:30pm 29.4 SE 15 20 1014.4 - 0.0 - - - - - - -
02/02:00pm 29.9 ESE 13 19 1014.7 - 0.0 - - - - - - -
02/01:30pm 29.2 ESE 13 21 1015.2 - 0.0 - - - - - - -
02/01:00pm 28.7 ESE 15 20 1015.6 - 0.0 - - - - - - -
02/12:30pm 28.8 ESE 14 19 1016.0 - 0.0 - - - - - - -
02/12:00pm 28.7 SE 14 22 1016.4 - 0.0 - - - - - - -
02/11:30am 27.8 SE 15 20 1016.9 - 0.0 - - - - - - -
02/11:00am 27.5 SE 15 20 1017.3 - 0.0 - - - - - - -
02/10:30am 26.6 SE 16 20 1017.6 - 0.0 - - - - - - -
02/10:00am 25.8 SE 12 17 1017.8 - 0.0 - - - - - - -
02/09:30am 24.8 SE 12 17 1017.8 - 0.0 - - - - - - -
02/09:00am 24.2 SE 11 15 1017.5 - 12.6 - - - - - - -
02/08:30am 23.0 SSE 8 11 1017.5 - 12.6 - - - - - - -

Other Formats:

Comma delimited format used in spreadsheet applications
http://www.bom.gov.au/fwo/IDD60701/IDD60701.94140.axf

JavaScript Object Notation format (JSON) in row-major order
http://www.bom.gov.au/fwo/IDD60701/IDD60701.94140.json